createdAt,value
2024-01-11T00:01:24.397Z,-0.78
2024-01-11T00:03:51.093Z,-1.12
2024-01-11T00:06:17.937Z,-1.23
2024-01-11T00:08:44.764Z,-1.38
2024-01-11T00:11:11.925Z,-1.46
2024-01-11T00:13:38.657Z,-1.43
2024-01-11T00:16:05.632Z,-1.27
2024-01-11T00:18:32.480Z,-1.31
2024-01-11T00:20:59.206Z,-1.22
2024-01-11T00:23:25.888Z,-1.60
2024-01-11T00:25:52.678Z,-1.23
2024-01-11T00:28:19.361Z,-1.19
2024-01-11T00:30:46.057Z,-1.21
2024-01-11T00:33:12.767Z,-1.52
2024-01-11T00:35:39.566Z,-1.39
2024-01-11T00:38:06.415Z,-1.52
2024-01-11T00:40:33.066Z,-1.43
2024-01-11T00:42:59.775Z,-1.32
2024-01-11T00:45:26.421Z,-1.40
2024-01-11T00:47:53.267Z,-1.14
2024-01-11T00:50:20.039Z,-1.34
2024-01-11T00:52:46.872Z,-1.31
2024-01-11T00:55:13.628Z,-1.47
2024-01-11T00:57:40.304Z,-1.35
2024-01-11T01:00:07.755Z,-1.32
2024-01-11T01:02:35.679Z,-1.42
2024-01-11T01:05:02.501Z,-1.37
2024-01-11T01:07:29.278Z,-1.48
2024-01-11T01:09:55.948Z,-1.39
2024-01-11T01:12:22.562Z,-1.30
2024-01-11T01:14:49.264Z,-1.28
2024-01-11T01:17:17.398Z,-1.28
2024-01-11T01:19:45.379Z,-1.27
2024-01-11T01:22:12.048Z,-1.10
2024-01-11T01:24:38.747Z,-1.20
2024-01-11T01:27:05.528Z,-1.39
2024-01-11T01:29:32.241Z,-1.33
2024-01-11T01:31:58.910Z,-1.16
2024-01-11T01:34:25.677Z,-1.27
2024-01-11T01:36:52.546Z,-1.47
2024-01-11T01:39:19.252Z,-1.38
2024-01-11T01:41:45.946Z,-1.73
2024-01-11T01:44:12.627Z,-1.50
2024-01-11T01:46:39.690Z,-1.65
2024-01-11T01:49:07.145Z,-1.36
2024-01-11T01:51:34.807Z,-1.16
2024-01-11T01:54:03.950Z,-1.42
2024-01-11T01:56:31.204Z,-1.51
2024-01-11T01:59:00.038Z,-1.18
2024-01-11T02:01:28.739Z,-1.30
2024-01-11T02:03:56.675Z,-1.45
2024-01-11T02:06:26.498Z,-1.46
2024-01-11T02:08:54.682Z,-1.42
2024-01-11T02:11:22.599Z,-1.41
2024-01-11T02:13:50.615Z,-1.29
2024-01-11T02:16:17.286Z,-1.35
2024-01-11T02:18:44.026Z,-1.33
2024-01-11T02:21:15.599Z,-1.50
2024-01-11T02:23:47.838Z,-1.35
2024-01-11T02:26:16.106Z,-1.76
2024-01-11T02:28:46.640Z,-1.59
2024-01-11T02:31:15.311Z,-1.43
2024-01-11T02:33:43.440Z,-1.57
2024-01-11T02:36:10.226Z,-1.48
2024-01-11T02:38:37.327Z,-1.56
2024-01-11T02:41:04.670Z,-1.44
2024-01-11T02:43:31.500Z,-1.50
2024-01-11T02:45:59.783Z,-1.58
2024-01-11T02:48:30.599Z,-1.66
2024-01-11T02:50:58.763Z,-1.53
2024-01-11T02:53:25.583Z,-1.28
2024-01-11T02:55:52.279Z,-1.27
2024-01-11T02:58:18.972Z,-1.37
2024-01-11T03:00:45.753Z,-1.32
2024-01-11T03:03:12.728Z,-1.14
2024-01-11T03:05:40.338Z,-1.41
2024-01-11T03:08:07.128Z,-1.38
2024-01-11T03:10:33.871Z,-1.50
2024-01-11T03:13:00.924Z,-1.85
2024-01-11T03:15:27.593Z,-1.78
2024-01-11T03:17:54.384Z,-1.83
2024-01-11T03:20:25.735Z,-1.85
2024-01-11T03:22:53.874Z,-1.76
2024-01-11T03:25:20.580Z,-1.71
2024-01-11T03:27:47.224Z,-1.82
2024-01-11T03:30:14.304Z,-1.81
2024-01-11T03:32:41.403Z,-2.02
2024-01-11T03:35:11.406Z,-1.96
2024-01-11T03:37:38.365Z,-1.85
2024-01-11T03:40:05.648Z,-2.13
2024-01-11T03:42:32.546Z,-2.28
2024-01-11T03:44:59.199Z,-2.26
2024-01-11T03:47:25.944Z,-2.28
2024-01-11T03:49:52.641Z,-2.07
2024-01-11T03:52:19.404Z,-2.00
2024-01-11T03:54:46.289Z,-2.09
2024-01-11T03:57:13.031Z,-2.04
2024-01-11T03:59:39.818Z,-2.03
2024-01-11T04:02:06.933Z,-1.95
2024-01-11T04:04:34.094Z,-1.83
2024-01-11T04:07:00.775Z,-1.83
2024-01-11T04:09:27.480Z,-2.02
2024-01-11T04:11:54.152Z,-1.90
2024-01-11T04:14:20.905Z,-2.11
2024-01-11T04:16:47.578Z,-2.08
2024-01-11T04:19:14.436Z,-2.25
2024-01-11T04:21:41.331Z,-2.32
2024-01-11T04:24:08.977Z,-2.19
2024-01-11T04:26:36.084Z,-2.25
2024-01-11T04:29:03.046Z,-2.31
2024-01-11T04:31:30.071Z,-2.40
2024-01-11T04:33:57.443Z,-2.43
2024-01-11T04:36:24.269Z,-2.32
2024-01-11T04:38:51.145Z,-2.37
2024-01-11T04:41:17.828Z,-2.37
2024-01-11T04:43:45.653Z,-2.41
2024-01-11T04:46:15.831Z,-2.32
2024-01-11T04:48:42.644Z,-2.50
2024-01-11T04:51:09.414Z,-2.23
2024-01-11T04:53:43.241Z,-2.13
2024-01-11T04:56:11.484Z,-2.32
2024-01-11T04:58:40.586Z,-2.18
2024-01-11T05:01:07.821Z,-2.11
2024-01-11T05:03:34.604Z,-1.92
2024-01-11T05:06:01.427Z,-2.19
2024-01-11T05:08:29.184Z,-2.29
2024-01-11T05:10:56.098Z,-2.54
2024-01-11T05:13:23.299Z,-2.38
2024-01-11T05:15:50.017Z,-2.21
2024-01-11T05:18:16.969Z,-2.34
2024-01-11T05:20:43.843Z,-2.33
2024-01-11T05:23:10.623Z,-2.19
2024-01-11T05:25:37.330Z,-2.19
2024-01-11T05:28:04.923Z,-2.12
2024-01-11T05:30:32.178Z,-2.38
2024-01-11T05:32:59.377Z,-2.35
2024-01-11T05:35:28.593Z,-2.34
2024-01-11T05:37:58.370Z,-2.47
2024-01-11T05:40:25.104Z,-2.56
2024-01-11T05:42:51.803Z,-2.66
2024-01-11T05:45:20.945Z,-2.36
2024-01-11T05:47:51.204Z,-2.28
2024-01-11T05:50:18.404Z,-2.24
2024-01-11T05:52:45.180Z,-2.52
2024-01-11T05:55:11.873Z,-2.63
2024-01-11T05:57:38.549Z,-2.56
2024-01-11T06:00:06.480Z,-2.38
2024-01-11T06:02:33.385Z,-2.29
2024-01-11T06:05:00.100Z,-2.26
2024-01-11T06:07:26.891Z,-2.32
2024-01-11T06:09:54.251Z,-2.34
2024-01-11T06:12:20.934Z,-2.55
2024-01-11T06:14:47.865Z,-2.62
2024-01-11T06:17:14.915Z,-2.31
2024-01-11T06:19:41.664Z,-2.68
2024-01-11T06:22:08.349Z,-3.54
2024-01-11T06:24:35.027Z,-4.20
2024-01-11T06:27:01.845Z,-3.69
2024-01-11T06:29:28.844Z,-3.01
2024-01-11T06:31:55.642Z,-2.92
2024-01-11T06:34:22.285Z,-2.61
2024-01-11T06:36:49.026Z,-2.41
2024-01-11T06:39:15.909Z,-2.43
2024-01-11T06:41:42.832Z,-2.43
2024-01-11T06:44:10.112Z,-2.42
2024-01-11T06:46:37.429Z,-2.47
2024-01-11T06:49:04.889Z,-2.41
2024-01-11T06:51:31.679Z,-2.42
2024-01-11T06:53:58.371Z,-2.46
2024-01-11T06:56:25.223Z,-2.53
2024-01-11T06:58:52.206Z,-2.28
2024-01-11T07:01:19.029Z,-1.94
2024-01-11T07:03:45.984Z,-2.12
2024-01-11T07:06:13.382Z,-2.15
2024-01-11T07:08:40.222Z,-2.10
2024-01-11T07:11:06.963Z,-1.95
2024-01-11T07:13:33.708Z,-2.03
2024-01-11T07:16:01.042Z,-2.00
2024-01-11T07:18:27.842Z,-1.98
2024-01-11T07:20:54.688Z,-1.91
2024-01-11T07:23:21.852Z,-1.65
2024-01-11T07:25:48.866Z,-1.79
2024-01-11T07:28:15.680Z,-1.86
2024-01-11T07:30:42.352Z,-1.77
2024-01-11T07:33:10.802Z,-1.93
2024-01-11T07:35:37.971Z,-1.76
2024-01-11T07:38:05.241Z,-2.16
2024-01-11T07:40:34.596Z,-1.96
2024-01-11T07:43:02.772Z,-1.65
2024-01-11T07:45:29.466Z,-1.27
2024-01-11T07:47:56.185Z,-1.18
2024-01-11T07:50:23.203Z,-1.56
2024-01-11T07:52:50.814Z,-1.75
2024-01-11T07:55:17.962Z,-1.12
2024-01-11T07:57:44.785Z,-0.75
2024-01-11T08:00:11.787Z,-1.12
2024-01-11T08:02:39.203Z,-1.05
2024-01-11T08:05:06.568Z,-0.65
2024-01-11T08:07:33.282Z,-0.81
2024-01-11T08:09:59.910Z,-0.45
2024-01-11T08:12:26.586Z,-0.21
2024-01-11T08:14:53.295Z,-0.60
2024-01-11T08:17:20.466Z,-0.44
2024-01-11T08:19:47.236Z,-0.52
2024-01-11T08:22:14.074Z,-1.08
2024-01-11T08:24:40.750Z,-0.89
2024-01-11T08:27:07.492Z,-0.81
2024-01-11T08:29:34.628Z,-0.56
2024-01-11T08:32:15.332Z,-0.81
2024-01-11T08:34:51.173Z,-0.48
2024-01-11T08:37:17.997Z,-1.09
2024-01-11T08:39:44.861Z,-0.86
2024-01-11T08:42:11.507Z,-0.20
2024-01-11T08:44:42.091Z,-0.49
2024-01-11T08:47:10.734Z,-1.20
2024-01-11T08:49:39.676Z,-0.68
2024-01-11T08:52:07.062Z,-1.18
2024-01-11T08:54:34.485Z,-1.18
2024-01-11T08:57:01.500Z,-0.61
2024-01-11T08:59:28.287Z,-0.64
2024-01-11T09:02:02.465Z,-0.18
2024-01-11T09:04:37.539Z,-0.78
2024-01-11T09:07:04.729Z,-0.83
2024-01-11T09:09:34.600Z,-0.57
2024-01-11T09:12:01.432Z,-0.38
2024-01-11T09:14:28.345Z,-0.44
2024-01-11T09:16:59.139Z,-0.19
2024-01-11T09:19:26.579Z,-0.40
2024-01-11T09:21:53.352Z,0.21
2024-01-11T09:24:20.047Z,0.13
2024-01-11T09:26:46.944Z,0.21
2024-01-11T09:29:13.672Z,0.28
2024-01-11T09:31:40.383Z,0.37
2024-01-11T09:34:07.309Z,0.58
2024-01-11T09:36:34.336Z,0.59
2024-01-11T09:39:01.370Z,-0.26
2024-01-11T09:41:28.464Z,0.38
2024-01-11T09:43:55.743Z,0.68
2024-01-11T09:46:24.040Z,0.83
2024-01-11T09:48:53.211Z,0.87
2024-01-11T09:51:20.095Z,0.73
2024-01-11T09:53:48.490Z,1.00
2024-01-11T09:56:15.204Z,0.91
2024-01-11T09:58:49.815Z,1.11
2024-01-11T10:01:17.159Z,0.93
2024-01-11T10:03:47.398Z,1.20
2024-01-11T10:06:16.875Z,1.19
2024-01-11T10:08:43.710Z,0.94
2024-01-11T10:11:10.462Z,1.14
2024-01-11T10:13:37.365Z,1.33
2024-01-11T10:16:14.724Z,1.30
2024-01-11T10:18:41.815Z,1.60
2024-01-11T10:21:10.948Z,1.68
2024-01-11T10:23:38.609Z,1.71
2024-01-11T10:26:05.316Z,1.62
2024-01-11T10:28:32.065Z,1.82
2024-01-11T10:30:59.248Z,1.11
2024-01-11T10:33:26.283Z,1.77
2024-01-11T10:35:53.064Z,1.50
2024-01-11T10:38:20.385Z,1.57
2024-01-11T10:40:47.507Z,1.49
2024-01-11T10:43:20.614Z,1.90
2024-01-11T10:45:55.074Z,2.13
2024-01-11T10:48:23.972Z,1.86
2024-01-11T10:50:56.096Z,1.30
2024-01-11T10:53:47.404Z,1.84
2024-01-11T10:56:19.577Z,2.11
2024-01-11T10:58:47.850Z,2.27
2024-01-11T11:01:15.406Z,1.54
2024-01-11T11:03:44.673Z,1.63
2024-01-11T11:06:13.253Z,1.97
2024-01-11T11:08:41.641Z,2.19
2024-01-11T11:11:09.201Z,2.04
2024-01-11T11:13:36.319Z,1.72
2024-01-11T11:16:05.397Z,2.08
2024-01-11T11:18:36.475Z,2.58
2024-01-11T11:21:12.682Z,2.68
2024-01-11T11:23:39.640Z,2.42
2024-01-11T11:26:10.968Z,2.30
2024-01-11T11:28:37.961Z,1.68
2024-01-11T11:31:04.830Z,2.15
2024-01-11T11:33:34.767Z,2.60
2024-01-11T11:36:03.959Z,2.71
2024-01-11T11:38:32.566Z,2.82
2024-01-11T11:41:01.707Z,2.96
2024-01-11T11:43:29.607Z,2.82
2024-01-11T11:45:59.684Z,2.69
2024-01-11T11:48:32.640Z,2.94
2024-01-11T11:51:10.022Z,3.10
2024-01-11T11:53:41.696Z,2.53
2024-01-11T11:56:18.244Z,2.99
2024-01-11T11:58:46.380Z,2.67
2024-01-11T12:01:15.415Z,2.96
2024-01-11T12:03:43.378Z,2.65
2024-01-11T12:06:12.074Z,2.84
2024-01-11T12:08:42.858Z,2.19
2024-01-11T12:11:10.277Z,2.75
2024-01-11T12:13:38.754Z,2.96
2024-01-11T12:16:05.527Z,3.21
2024-01-11T12:18:32.879Z,3.48
2024-01-11T12:21:00.518Z,3.51
2024-01-11T12:23:31.197Z,3.56
2024-01-11T12:25:58.883Z,3.77
2024-01-11T12:28:26.029Z,3.72
2024-01-11T12:30:53.111Z,3.69
2024-01-11T12:33:20.943Z,3.35
2024-01-11T12:35:47.926Z,3.36
2024-01-11T12:38:14.779Z,3.56
2024-01-11T12:40:41.698Z,2.92
2024-01-11T12:43:08.942Z,2.96
2024-01-11T12:45:36.343Z,2.41
2024-01-11T12:48:05.010Z,2.69
2024-01-11T12:50:34.992Z,2.62
2024-01-11T12:53:19.075Z,2.54
2024-01-11T12:55:55.338Z,2.80
2024-01-11T12:58:27.412Z,3.22
2024-01-11T13:00:55.331Z,2.99
2024-01-11T13:03:22.470Z,2.91
2024-01-11T13:05:50.249Z,3.68
2024-01-11T13:08:19.500Z,3.26
2024-01-11T13:10:50.638Z,3.18
2024-01-11T13:13:17.509Z,3.58
2024-01-11T13:15:44.427Z,3.62
2024-01-11T13:18:11.301Z,2.87
2024-01-11T13:20:38.258Z,2.99
2024-01-11T13:23:21.096Z,2.85
2024-01-11T13:25:49.298Z,3.02
2024-01-11T13:28:16.486Z,2.81
2024-01-11T13:30:44.943Z,3.20
2024-01-11T13:33:12.311Z,2.95
2024-01-11T13:35:40.753Z,2.49
2024-01-11T13:38:07.867Z,2.51
2024-01-11T13:40:34.603Z,3.19
2024-01-11T13:43:01.861Z,2.59
2024-01-11T13:45:29.325Z,2.60
2024-01-11T13:47:56.143Z,2.89
2024-01-11T13:50:25.920Z,2.91
2024-01-11T13:52:53.808Z,3.22
2024-01-11T13:55:23.941Z,3.25
2024-01-11T13:57:51.814Z,3.10
2024-01-11T14:00:20.184Z,2.97
2024-01-11T14:02:48.744Z,3.33
2024-01-11T14:05:18.841Z,3.06
2024-01-11T14:07:47.272Z,2.70
2024-01-11T14:10:16.190Z,2.80
2024-01-11T14:12:42.972Z,2.83
2024-01-11T14:15:14.137Z,2.67
2024-01-11T14:17:42.386Z,2.47
2024-01-11T14:20:15.269Z,2.36
2024-01-11T14:22:43.257Z,2.42
2024-01-11T14:25:12.884Z,2.76
2024-01-11T14:27:40.084Z,3.09
2024-01-11T14:30:08.126Z,3.28
2024-01-11T14:32:37.524Z,3.09
2024-01-11T14:35:08.616Z,3.44
2024-01-11T14:37:37.475Z,3.38
2024-01-11T14:40:05.751Z,2.63
2024-01-11T14:42:32.471Z,2.20
2024-01-11T14:44:59.166Z,1.99
2024-01-11T14:47:26.993Z,2.26
2024-01-11T14:49:53.745Z,2.28
2024-01-11T14:52:20.395Z,2.39
2024-01-11T14:54:48.997Z,2.00
2024-01-11T14:57:16.654Z,2.09
2024-01-11T14:59:44.852Z,2.22
2024-01-11T15:02:12.210Z,2.08
2024-01-11T15:04:39.812Z,2.17
2024-01-11T15:07:06.846Z,2.47
2024-01-11T15:09:36.418Z,2.18
2024-01-11T15:12:04.425Z,2.11
2024-01-11T15:14:31.155Z,1.97
2024-01-11T15:16:58.587Z,1.89
2024-01-11T15:19:25.838Z,1.69
2024-01-11T15:21:53.766Z,1.91
2024-01-11T15:24:21.232Z,2.16
2024-01-11T15:26:49.864Z,2.61
2024-01-11T15:29:17.621Z,2.36
2024-01-11T15:31:47.271Z,2.47
2024-01-11T15:34:15.938Z,2.31
2024-01-11T15:36:43.729Z,1.92
2024-01-11T15:39:21.209Z,2.04
2024-01-11T15:41:58.289Z,1.72
2024-01-11T15:44:27.970Z,2.23
2024-01-11T15:46:56.251Z,1.43
2024-01-11T15:49:23.729Z,1.30
2024-01-11T15:51:50.574Z,1.33
2024-01-11T15:54:17.283Z,1.95
2024-01-11T15:56:44.166Z,1.59
2024-01-11T15:59:10.941Z,2.17
2024-01-11T16:01:50.288Z,1.82
2024-01-11T16:04:23.779Z,2.02
2024-01-11T16:06:50.699Z,2.05
2024-01-11T16:09:17.607Z,1.92
2024-01-11T16:11:44.485Z,1.29
2024-01-11T16:14:11.413Z,1.70
2024-01-11T16:16:38.326Z,1.71
2024-01-11T16:19:05.365Z,1.52
2024-01-11T16:21:32.720Z,1.28
2024-01-11T16:24:02.865Z,1.72
2024-01-11T16:26:30.255Z,1.56
2024-01-11T16:28:56.951Z,1.83
2024-01-11T16:31:26.499Z,1.53
2024-01-11T16:33:54.115Z,1.75
2024-01-11T16:36:21.173Z,1.49
2024-01-11T16:38:48.058Z,1.43
2024-01-11T16:41:15.158Z,1.56
2024-01-11T16:43:41.945Z,1.51
2024-01-11T16:46:08.869Z,1.66
2024-01-11T16:48:36.035Z,1.48
2024-01-11T16:51:03.983Z,1.41
2024-01-11T16:53:31.478Z,1.84
2024-01-11T16:55:58.381Z,1.71
2024-01-11T16:58:25.300Z,1.15
2024-01-11T17:00:52.101Z,1.33
2024-01-11T17:03:18.842Z,1.39
2024-01-11T17:05:45.927Z,1.56
2024-01-11T17:08:12.677Z,1.31
2024-01-11T17:10:40.678Z,1.24
2024-01-11T17:13:07.517Z,1.23
2024-01-11T17:15:34.280Z,1.41
2024-01-11T17:18:01.142Z,1.86
2024-01-11T17:20:28.356Z,1.96
2024-01-11T17:22:55.399Z,2.02
2024-01-11T17:25:22.376Z,1.28
2024-01-11T17:27:49.259Z,1.03
2024-01-11T17:30:16.559Z,1.01
2024-01-11T17:32:43.403Z,1.02
2024-01-11T17:35:10.345Z,0.98
2024-01-11T17:37:37.411Z,0.65
2024-01-11T17:40:06.034Z,0.64
2024-01-11T17:42:32.719Z,0.68
2024-01-11T17:44:59.542Z,0.75
2024-01-11T17:47:26.495Z,0.51
2024-01-11T17:49:53.348Z,0.74
2024-01-11T17:52:23.482Z,1.05
2024-01-11T17:54:50.180Z,1.42
2024-01-11T17:57:16.902Z,1.02
2024-01-11T17:59:45.341Z,0.88
2024-01-11T18:02:12.264Z,0.93
2024-01-11T18:04:39.233Z,0.60
2024-01-11T18:07:06.158Z,0.55
2024-01-11T18:09:36.358Z,0.99
2024-01-11T18:12:04.417Z,0.77
2024-01-11T18:14:31.117Z,1.10
2024-01-11T18:16:57.858Z,1.08
2024-01-11T18:19:27.043Z,0.94
2024-01-11T18:21:53.864Z,0.74
2024-01-11T18:24:21.888Z,0.90
2024-01-11T18:26:48.737Z,0.59
2024-01-11T18:29:15.601Z,0.76
2024-01-11T18:31:46.882Z,0.74
2024-01-11T18:34:13.716Z,0.82
2024-01-11T18:36:45.444Z,0.42
2024-01-11T18:39:12.653Z,0.89
2024-01-11T18:41:39.573Z,0.56
2024-01-11T18:44:06.389Z,0.37
2024-01-11T18:46:38.528Z,0.45
2024-01-11T18:49:05.331Z,0.73
2024-01-11T18:51:32.880Z,0.62
2024-01-11T18:54:00.493Z,0.54
2024-01-11T18:56:27.327Z,0.12
2024-01-11T18:58:54.203Z,-0.05
2024-01-11T19:01:26.588Z,-0.05
2024-01-11T19:03:53.829Z,-0.02
2024-01-11T19:06:21.844Z,-0.10
2024-01-11T19:08:49.300Z,0.07
2024-01-11T19:11:17.019Z,0.21
2024-01-11T19:13:45.104Z,0.69
2024-01-11T19:16:11.903Z,0.61
2024-01-11T19:18:38.824Z,0.72
2024-01-11T19:21:05.985Z,0.48
2024-01-11T19:23:33.774Z,0.50
2024-01-11T19:26:01.163Z,0.48
2024-01-11T19:28:28.249Z,-0.13
2024-01-11T19:30:55.120Z,-0.14
2024-01-11T19:33:22.478Z,-0.37
2024-01-11T19:35:49.588Z,0.20
2024-01-11T19:38:16.546Z,0.05
2024-01-11T19:40:43.291Z,-0.04
2024-01-11T19:43:10.413Z,0.10
2024-01-11T19:45:37.371Z,0.10
2024-01-11T19:48:04.932Z,0.28
2024-01-11T19:50:34.417Z,0.53
2024-01-11T19:53:01.684Z,0.22
2024-01-11T19:55:28.360Z,-0.12
2024-01-11T19:57:55.217Z,0.21
2024-01-11T20:00:21.960Z,-0.49
2024-01-11T20:02:48.971Z,0.23
2024-01-11T20:05:16.006Z,0.02
2024-01-11T20:07:44.738Z,0.12
2024-01-11T20:10:12.550Z,0.35
2024-01-11T20:12:39.320Z,0.25
2024-01-11T20:15:08.322Z,0.20
2024-01-11T20:17:35.448Z,-0.01
2024-01-11T20:20:02.332Z,0.10
2024-01-11T20:22:29.173Z,0.19
2024-01-11T20:24:56.224Z,-0.29
2024-01-11T20:27:23.504Z,0.01
2024-01-11T20:29:50.646Z,0.00
2024-01-11T20:32:17.654Z,0.59
2024-01-11T20:34:44.718Z,0.38
2024-01-11T20:37:11.604Z,0.19
2024-01-11T20:39:39.266Z,0.39
2024-01-11T20:42:06.400Z,0.20
2024-01-11T20:44:36.661Z,0.30
2024-01-11T20:47:04.556Z,0.95
2024-01-11T20:49:31.417Z,-0.41
2024-01-11T20:52:00.313Z,0.14
2024-01-11T20:54:27.296Z,0.41
2024-01-11T20:56:56.136Z,-0.19
2024-01-11T20:59:23.270Z,-0.59
2024-01-11T21:01:50.094Z,0.01
2024-01-11T21:04:16.796Z,0.44
2024-01-11T21:06:45.032Z,0.48
2024-01-11T21:09:12.244Z,0.84
2024-01-11T21:11:38.995Z,-0.10
2024-01-11T21:14:05.901Z,0.17
2024-01-11T21:16:32.608Z,0.64
2024-01-11T21:18:59.677Z,0.56
2024-01-11T21:21:27.734Z,0.23
2024-01-11T21:23:58.607Z,0.58
2024-01-11T21:26:25.538Z,0.29
2024-01-11T21:28:54.882Z,0.43
2024-01-11T21:31:26.462Z,0.66
2024-01-11T21:33:53.770Z,-0.11
2024-01-11T21:36:25.107Z,0.02
2024-01-11T21:38:54.827Z,-0.01
2024-01-11T21:41:27.537Z,0.40
2024-01-11T21:43:58.682Z,0.45
2024-01-11T21:46:27.138Z,0.77
2024-01-11T21:48:54.352Z,1.01
2024-01-11T21:51:21.038Z,0.78
2024-01-11T21:53:47.704Z,0.59
2024-01-11T21:56:14.605Z,0.84
2024-01-11T21:58:41.321Z,1.00
2024-01-11T22:01:08.527Z,1.09
2024-01-11T22:03:36.327Z,1.13
2024-01-11T22:06:04.482Z,0.53
2024-01-11T22:08:31.676Z,0.58
2024-01-11T22:10:58.603Z,0.44
2024-01-11T22:13:25.291Z,0.85
2024-01-11T22:15:52.194Z,0.66
2024-01-11T22:18:19.092Z,0.46
2024-01-11T22:20:46.070Z,0.60
2024-01-11T22:23:12.973Z,0.19
2024-01-11T22:25:40.058Z,-0.03
2024-01-11T22:28:06.840Z,-0.09
2024-01-11T22:30:34.337Z,-0.43
2024-01-11T22:33:01.606Z,-0.55
2024-01-11T22:35:28.537Z,-1.02
2024-01-11T22:37:55.421Z,-1.08
2024-01-11T22:40:22.229Z,-0.77
2024-01-11T22:42:48.873Z,-1.10
2024-01-11T22:45:15.505Z,-1.11
2024-01-11T22:47:42.440Z,-0.57
2024-01-11T22:50:09.736Z,-0.96
2024-01-11T22:52:36.562Z,-1.20
2024-01-11T22:55:03.561Z,-1.04
2024-01-11T22:57:30.266Z,-1.65
2024-01-11T22:59:57.155Z,-1.67
2024-01-11T23:02:23.851Z,-1.28
2024-01-11T23:04:50.970Z,-2.15
2024-01-11T23:07:18.577Z,-2.43
2024-01-11T23:09:45.312Z,-2.40
2024-01-11T23:12:12.482Z,-2.70
2024-01-11T23:14:39.156Z,-2.47
2024-01-11T23:17:07.361Z,-2.15
2024-01-11T23:19:34.553Z,-1.98
2024-01-11T23:22:01.487Z,-1.57
2024-01-11T23:24:28.143Z,-1.24
2024-01-11T23:26:55.096Z,-1.67
2024-01-11T23:29:22.103Z,-1.59
2024-01-11T23:31:49.318Z,-1.73
2024-01-11T23:34:16.434Z,-1.74
2024-01-11T23:36:43.378Z,-1.62
2024-01-11T23:39:10.080Z,-1.86
2024-01-11T23:41:36.875Z,-1.37
2024-01-11T23:44:03.695Z,-1.12
2024-01-11T23:46:30.480Z,-1.13
2024-01-11T23:48:57.403Z,-1.17
2024-01-11T23:51:24.437Z,-0.96
2024-01-11T23:53:51.385Z,-1.11
2024-01-11T23:56:18.236Z,-0.65
2024-01-11T23:58:45.065Z,-0.68
